Dobrodošli na spletni strani vremenske postaje Senovo. Vse informacije so informativnega značaja, saj vremenska postaja ni del državne mreže meteoroloških postaj. AKTUALNIH OBVESTIL NI.


Sneg/Led Od: 21-02-2018 00:00 Do: 23-02-2018 23:59 Opozorilo za: Sneg/Led Stopnja: Rumena info button
Veter Od: 21-02-2018 00:00 Do: 22-02-2018 23:59 Opozorilo za: Veter Stopnja: Rumena info button

Pogled proti Armezu več informacij Pogled proti Armezu


Lisca več informacij Lisca


Radar strel več informacij blitzortung!


opozorilo za sneg/led več informacij rain snow radar


Obiščite še:

Template documentation
and downloads

And another site



Weather Underground, zgodovina - Tekstovno

Dnevni povzetek za Junij 3, 2017 Enote:  Angleško    Metrično   Obe
« Predhodni Dan
Naslednji Dan »
Dnevni Tedenski Mesečni Letni Po meri
  Višja: Nižja: Povprečje:
Temperatura: TemperatureC °F 14.8 °F 21.3 °F
Točka rosišča: DewpointC °F 13.5 °F 15.3 °F
Vlažnost: Humidity % 41 % 71 %
Hitrost vetra: WindSpeedKMH mph 0.0 mph 1.7 mph
Sunki vetra: WindSpeedGustKMH mph - -
Veter:- - SSW
Zračni tlak: PressurehPa in 1013.1 in -
Padavine: 0.0 in    
Historical Graphs
 
 
Tabelarni podarki za Junij 3, 2017
Čas Temperatura Točka rosišča Zračni tlak Veter Hitrost vetra Sunki vetra Vlažnost Intenziteta padavin (urna)
TemperatureC °F DewpointC °F PressurehPa in Calm     Humidity % HourlyPrecipMM in
00:02 17.8 °F 15.6 °F 1016.8 in West 1.0 mph 4.7 mph 87 % 0.0 in
00:07 17.8 °F 15.6 °F 1016.8 in Calm   1.8 mph 87 % 0.0 in
00:12 17.8 °F 15.6 °F 1016.1 in NW 0.3 mph 2.6 mph 87 % 0.0 in
00:17 17.7 °F 15.5 °F 1016.1 in NNW 0.5 mph 2.6 mph 87 % 0.0 in
00:22 17.8 °F 15.2 °F 1016.1 in South 1.3 mph 5.8 mph 85 % 0.0 in
00:27 17.9 °F 14.9 °F 1016.1 in South 3.9 mph 6.1 mph 83 % 0.0 in
00:32 17.8 °F 14.9 °F 1016.1 in SSW 4.8 mph 6.1 mph 83 % 0.0 in
00:37 17.7 °F 14.9 °F 1016.1 in West 2.4 mph 4.7 mph 84 % 0.0 in
00:42 17.5 °F 14.8 °F 1016.1 in NW 1.3 mph 4.3 mph 84 % 0.0 in
00:47 17.4 °F 14.7 °F 1016.1 in NW 0.8 mph 4.3 mph 84 % 0.0 in
00:52 17.3 °F 14.6 °F 1016.1 in NNW 1.3 mph 4.3 mph 84 % 0.0 in
00:57 17.2 °F 14.7 °F 1016.1 in NNW 1.6 mph 4.3 mph 85 % 0.0 in
01:02 17.0 °F 14.4 °F 1016.1 in NW 0.3 mph 4.3 mph 85 % 0.0 in
01:07 17.0 °F 14.4 °F 1016.1 in Calm     85 % 0.0 in
01:12 16.9 °F 14.3 °F 1016.1 in Calm     85 % 0.0 in
01:17 16.8 °F 14.4 °F 1016.1 in Calm     86 % 0.0 in
01:22 16.8 °F 14.4 °F 1016.1 in NNW 0.2 mph 3.5 mph 86 % 0.0 in
01:27 16.6 °F 14.2 °F 1016.8 in NNW 0.5 mph 3.5 mph 86 % 0.0 in
01:32 16.5 °F 14.3 °F 1016.8 in NNW 0.6 mph 3.2 mph 87 % 0.0 in
01:37 16.5 °F 14.3 °F 1016.8 in NNW 0.3 mph 1.4 mph 87 % 0.0 in
01:42 16.4 °F 14.2 °F 1016.1 in NNW 0.2 mph 1.4 mph 87 % 0.0 in
01:47 16.3 °F 14.1 °F 1016.1 in Calm     87 % 0.0 in
01:52 16.3 °F 14.1 °F 1016.1 in Calm     87 % 0.0 in
01:57 16.2 °F 14.2 °F 1016.1 in Calm     88 % 0.0 in
02:02 16.2 °F 14.2 °F 1016.1 in Calm     88 % 0.0 in
02:08 16.2 °F 14.2 °F 1016.1 in Calm     88 % 0.0 in
02:13 16.1 °F 14.1 °F 1016.1 in Calm     88 % 0.0 in
02:18 16.1 °F 14.1 °F 1016.1 in Calm     88 % 0.0 in
02:23 16.1 °F 14.1 °F 1016.1 in Calm     88 % 0.0 in
02:28 16.1 °F 14.3 °F 1016.1 in Calm     89 % 0.0 in
02:33 16.0 °F 14.2 °F 1016.1 in Calm     89 % 0.0 in
02:38 16.0 °F 14.2 °F 1016.1 in Calm     89 % 0.0 in
02:43 15.9 °F 14.3 °F 1016.1 in Calm     90 % 0.0 in
02:48 15.9 °F 14.3 °F 1016.1 in Calm     90 % 0.0 in
02:53 15.9 °F 14.3 °F 1016.1 in Calm     90 % 0.0 in
02:58 15.8 °F 14.2 °F 1016.1 in Calm     90 % 0.0 in
03:03 15.8 °F 14.2 °F 1016.1 in Calm     90 % 0.0 in
03:08 15.8 °F 14.2 °F 1016.1 in Calm     90 % 0.0 in
03:13 15.8 °F 14.2 °F 1016.1 in Calm     90 % 0.0 in
03:18 15.8 °F 14.2 °F 1016.1 in Calm     90 % 0.0 in
03:23 15.8 °F 14.3 °F 1016.1 in Calm     91 % 0.0 in
03:28 15.8 °F 14.3 °F 1016.1 in North 0.2 mph 2.1 mph 91 % 0.0 in
03:33 15.7 °F 14.2 °F 1016.1 in North 0.2 mph 2.1 mph 91 % 0.0 in
03:38 15.7 °F 14.2 °F 1016.1 in Calm     91 % 0.0 in
03:43 15.7 °F 14.2 °F 1015.1 in Calm     91 % 0.0 in
03:48 15.7 °F 14.2 °F 1015.1 in Calm     91 % 0.0 in
03:53 15.7 °F 14.2 °F 1015.1 in West 0.3 mph 3.5 mph 91 % 0.0 in
03:58 15.7 °F 14.2 °F 1016.1 in West 0.3 mph 3.5 mph 91 % 0.0 in
04:03 15.7 °F 14.2 °F 1016.1 in West 0.2 mph 1.8 mph 91 % 0.0 in
04:08 15.6 °F 14.3 °F 1016.1 in Calm   2.6 mph 92 % 0.0 in
04:13 15.6 °F 14.3 °F 1016.1 in Calm   2.6 mph 92 % 0.0 in
04:18 15.6 °F 14.3 °F 1016.1 in Calm   2.6 mph 92 % 0.0 in
04:23 15.6 °F 14.3 °F 1016.1 in NW 0.2 mph 1.4 mph 92 % 0.0 in
04:28 15.5 °F 14.2 °F 1015.1 in NW 0.2 mph 1.4 mph 92 % 0.0 in
04:33 15.4 °F 14.1 °F 1015.1 in Calm     92 % 0.0 in
04:38 15.4 °F 14.1 °F 1015.1 in Calm     92 % 0.0 in
04:43 15.3 °F 14.0 °F 1015.1 in Calm     92 % 0.0 in
04:48 15.3 °F 14.0 °F 1015.1 in Calm     92 % 0.0 in
04:53 15.2 °F 13.7 °F 1015.1 in Calm     91 % 0.0 in
04:58 15.1 °F 13.7 °F 1016.1 in Calm     91 % 0.0 in
05:03 15.0 °F 13.6 °F 1016.1 in Calm     91 % 0.0 in
05:08 14.9 °F 13.6 °F 1016.1 in Calm     92 % 0.0 in
05:13 14.9 °F 13.6 °F 1016.1 in Calm     92 % 0.0 in
05:18 14.8 °F 13.5 °F 1016.1 in Calm     92 % 0.0 in
05:19 14.8 °F 13.5 °F 1016.1 in Calm     92 % 0.0 in
05:24 14.8 °F 13.5 °F 1016.1 in Calm     92 % 0.0 in
05:29 14.8 °F 13.7 °F 1016.1 in Calm     93 % 0.0 in
05:34 14.8 °F 13.7 °F 1016.1 in Calm     93 % 0.0 in
05:39 14.8 °F 13.7 °F 1016.1 in Calm     93 % 0.0 in
05:44 14.8 °F 13.7 °F 1016.1 in Calm     93 % 0.0 in
05:49 14.9 °F 13.8 °F 1016.1 in Calm     93 % 0.0 in
05:54 14.9 °F 13.8 °F 1016.1 in Calm     93 % 0.0 in
05:59 14.9 °F 13.8 °F 1016.1 in Calm     93 % 0.0 in
06:04 15.0 °F 13.9 °F 1016.1 in Calm     93 % 0.0 in
06:09 15.0 °F 13.9 °F 1016.1 in Calm     93 % 0.0 in
06:14 15.1 °F 14.0 °F 1016.8 in Calm     93 % 0.0 in
06:19 15.1 °F 14.0 °F 1016.8 in Calm     93 % 0.0 in
06:24 15.2 °F 14.1 °F 1016.8 in Calm     93 % 0.0 in
06:29 15.2 °F 14.1 °F 1016.8 in Calm     93 % 0.0 in
06:34 15.3 °F 14.2 °F 1016.8 in Calm     93 % 0.0 in
06:39 15.4 °F 14.3 °F 1016.8 in Calm     93 % 0.0 in
06:40 15.4 °F 14.3 °F 1016.8 in Calm     93 % 0.0 in
06:45 15.5 °F 14.4 °F 1016.8 in Calm     93 % 0.0 in
06:50 15.5 °F 14.4 °F 1016.8 in Calm   1.8 mph 93 % 0.0 in
06:51 15.5 °F 14.4 °F 1016.8 in NNW 0.2 mph 2.1 mph 93 % 0.0 in
06:56 15.6 °F 14.4 °F 1016.8 in NNE 0.5 mph 3.2 mph 93 % 0.0 in
07:01 15.6 °F 14.4 °F 1016.8 in NNE 0.3 mph 3.2 mph 93 % 0.0 in
07:06 15.8 °F 14.7 °F 1016.8 in Calm     93 % 0.0 in
07:08 15.8 °F 14.7 °F 1016.8 in Calm     93 % 0.0 in
07:13 15.9 °F 14.8 °F 1016.8 in Calm     93 % 0.0 in
07:18 16.0 °F 14.9 °F 1016.8 in Calm     93 % 0.0 in
07:23 16.1 °F 14.9 °F 1016.8 in Calm     93 % 0.0 in
07:28 16.3 °F 15.2 °F 1016.8 in Calm     93 % 0.0 in
07:33 16.4 °F 15.3 °F 1016.8 in SSW 0.2 mph 3.5 mph 93 % 0.0 in
07:38 16.5 °F 15.4 °F 1016.8 in SW 2.4 mph 6.9 mph 93 % 0.0 in
07:43 16.6 °F 15.3 °F 1016.8 in SW 4.3 mph 6.9 mph 92 % 0.0 in
07:48 16.6 °F 15.3 °F 1016.8 in SW 4.7 mph 6.1 mph 92 % 0.0 in
07:53 16.8 °F 15.5 °F 1016.8 in SSW 4.7 mph 5.8 mph 92 % 0.0 in
07:58 16.9 °F 15.6 °F 1016.8 in SSW 4.0 mph 5.8 mph 92 % 0.0 in
07:59 17.0 °F 15.7 °F 1016.8 in SSW 4.0 mph 5.8 mph 92 % 0.0 in
08:04 17.3 °F 16.0 °F 1016.8 in SSW 4.2 mph 6.9 mph 92 % 0.0 in
08:14 17.7 °F 16.4 °F 1016.8 in SSW 4.2 mph 6.4 mph 92 % 0.0 in
08:19 17.9 °F 16.4 °F 1016.8 in SSW 3.9 mph 5.0 mph 91 % 0.0 in
08:24 18.0 °F 16.5 °F 1016.8 in SW 4.2 mph 6.1 mph 91 % 0.0 in
08:29 18.1 °F 16.4 °F 1016.8 in WSW 2.4 mph 6.1 mph 90 % 0.0 in
08:34 18.4 °F 16.6 °F 1016.8 in South 1.1 mph 6.1 mph 89 % 0.0 in
08:39 18.6 °F 16.8 °F 1016.8 in South 1.1 mph 6.1 mph 89 % 0.0 in
08:44 19.1 °F 17.1 °F 1016.8 in ESE 1.3 mph 5.5 mph 88 % 0.0 in
08:49 19.6 °F 17.4 °F 1016.8 in ESE 1.1 mph 4.3 mph 87 % 0.0 in
08:54 20.0 °F 17.4 °F 1016.8 in East 1.6 mph 6.1 mph 85 % 0.0 in
08:59 20.3 °F 17.5 °F 1016.8 in East 2.1 mph 6.1 mph 84 % 0.0 in
09:04 20.8 °F 17.6 °F 1016.8 in SE 2.3 mph 6.1 mph 82 % 0.0 in
09:05 20.8 °F 17.6 °F 1016.8 in SE 2.6 mph 6.1 mph 82 % 0.0 in
09:10 21.1 °F 17.3 °F 1016.8 in SSW 2.9 mph 6.1 mph 79 % 0.0 in
09:15 21.5 °F 17.5 °F 1016.8 in South 3.1 mph 7.2 mph 78 % 0.0 in
09:20 21.8 °F 17.6 °F 1016.8 in South 4.0 mph 7.2 mph 77 % 0.0 in
09:21 21.8 °F 17.6 °F 1016.8 in South 4.5 mph 7.2 mph 77 % 0.0 in
09:26 22.2 °F 17.8 °F 1016.8 in South 4.2 mph 6.9 mph 76 % 0.0 in
09:31 22.4 °F 17.9 °F 1016.8 in South 4.0 mph 7.9 mph 76 % 0.0 in
09:36 22.8 °F 17.9 °F 1016.8 in South 4.5 mph 7.9 mph 74 % 0.0 in
09:37 22.8 °F 17.9 °F 1016.8 in SSW 4.3 mph 6.9 mph 74 % 0.0 in
09:42 23.0 °F 17.7 °F 1016.8 in SSW 4.2 mph 7.9 mph 72 % 0.0 in
09:47 23.3 °F 17.5 °F 1016.8 in South 4.5 mph 7.9 mph 70 % 0.0 in
09:52 23.6 °F 17.6 °F 1016.8 in SSW 5.3 mph 7.9 mph 69 % 0.0 in
09:57 23.8 °F 17.8 °F 1016.8 in SSW 5.3 mph 7.6 mph 69 % 0.0 in
10:02 24.0 °F 17.7 °F 1016.8 in SSW 4.3 mph 8.7 mph 68 % 0.0 in
10:07 24.2 °F 17.7 °F 1016.8 in SSW 4.7 mph 10.5 mph 67 % 0.0 in
10:12 24.3 °F 17.6 °F 1016.8 in SSW 5.1 mph 10.5 mph 66 % 0.0 in
10:17 24.4 °F 17.4 °F 1016.8 in SW 2.4 mph 6.9 mph 65 % 0.0 in
10:22 24.3 °F 16.8 °F 1016.8 in SSW 2.7 mph 6.9 mph 63 % 0.0 in
10:27 24.3 °F 16.6 °F 1016.8 in SSW 3.7 mph 6.9 mph 62 % 0.0 in
10:32 24.4 °F 16.9 °F 1016.8 in SW 2.1 mph 4.3 mph 63 % 0.0 in
10:37 24.3 °F 16.8 °F 1016.8 in WSW 1.3 mph 4.3 mph 63 % 0.0 in
10:42 24.3 °F 16.8 °F 1016.1 in ENE 1.1 mph 5.8 mph 63 % 0.0 in
10:47 24.2 °F 16.2 °F 1016.1 in NE 2.6 mph 5.8 mph 61 % 0.0 in
10:52 24.1 °F 16.6 °F 1016.1 in NE 2.4 mph 5.5 mph 63 % 0.0 in
10:57 24.2 °F 16.7 °F 1016.1 in East 1.3 mph 4.7 mph 63 % 0.0 in
11:02 24.2 °F 16.7 °F 1016.1 in East 1.4 mph 5.0 mph 63 % 0.0 in
11:07 24.2 °F 16.4 °F 1016.1 in ENE 1.3 mph 5.0 mph 62 % 0.0 in
11:12 24.2 °F 16.7 °F 1016.1 in NE 1.6 mph 6.4 mph 63 % 0.0 in
11:17 24.3 °F 16.6 °F 1016.1 in NE 2.7 mph 6.4 mph 62 % 0.0 in
11:22 24.4 °F 16.9 °F 1016.1 in NE 2.6 mph 5.8 mph 63 % 0.0 in
11:27 24.5 °F 17.0 °F 1016.1 in NNE 1.4 mph 4.3 mph 63 % 0.0 in
11:32 24.6 °F 16.8 °F 1016.1 in NE 1.8 mph 5.5 mph 62 % 0.0 in
11:37 24.9 °F 17.1 °F 1016.1 in NE 2.7 mph 5.5 mph 62 % 0.0 in
11:42 25.0 °F 16.7 °F 1016.1 in North 3.4 mph 6.4 mph 60 % 0.0 in
11:47 25.1 °F 16.8 °F 1016.1 in North 3.4 mph 6.4 mph 60 % 0.0 in
11:52 25.2 °F 16.9 °F 1016.1 in NNW 2.7 mph 5.8 mph 60 % 0.0 in
11:57 25.4 °F 17.1 °F 1015.1 in NW 1.8 mph 5.8 mph 60 % 0.0 in
12:02 25.7 °F 17.3 °F 1015.1 in SE 1.0 mph 6.4 mph 60 % 0.0 in
12:07 26.1 °F 17.2 °F 1015.1 in SSE 3.4 mph 9.7 mph 58 % 0.0 in
12:12 26.2 °F 16.4 °F 1016.1 in South 5.8 mph 10.8 mph 55 % 0.0 in
12:17 26.3 °F 16.8 °F 1016.1 in WSW 4.5 mph 10.8 mph 56 % 0.0 in
12:23 26.6 °F 17.1 °F 1016.1 in WSW 2.9 mph 8.7 mph 56 % 0.0 in
12:28 26.8 °F 16.7 °F 1016.1 in SSW 3.7 mph 9.0 mph 54 % 0.0 in
12:33 26.9 °F 17.1 °F 1016.1 in WSW 5.1 mph 10.5 mph 55 % 0.0 in
12:38 27.0 °F 16.3 °F 1016.1 in West 6.4 mph 10.5 mph 52 % 0.0 in
12:43 27.2 °F 17.1 °F 1016.1 in WSW 6.3 mph 10.5 mph 54 % 0.0 in
12:48 27.5 °F 17.1 °F 1016.1 in SW 4.2 mph 6.9 mph 53 % 0.0 in
12:53 27.7 °F 17.3 °F 1016.1 in SW 2.9 mph 9.7 mph 53 % 0.0 in
12:58 28.0 °F 17.2 °F 1015.1 in South 4.3 mph 12.2 mph 52 % 0.0 in
13:03 28.3 °F 17.2 °F 1015.1 in SSE 5.6 mph 12.2 mph 51 % 0.0 in
13:08 28.3 °F 16.2 °F 1015.1 in ESE 5.0 mph 11.6 mph 48 % 0.0 in
13:13 28.4 °F 16.3 °F 1015.1 in SSW 5.0 mph 9.3 mph 48 % 0.0 in
13:18 28.6 °F 16.5 °F 1015.1 in SW 4.2 mph 9.0 mph 48 % 0.0 in
13:23 28.5 °F 16.1 °F 1015.1 in WSW 4.2 mph 9.3 mph 47 % 0.0 in
13:28 28.3 °F 16.2 °F 1016.1 in SW 4.3 mph 9.3 mph 48 % 0.0 in
13:29 28.3 °F 16.2 °F 1016.1 in SW 4.2 mph 9.3 mph 48 % 0.0 in
13:34 27.8 °F 15.8 °F 1016.1 in SE 3.1 mph 5.8 mph 48 % 0.0 in
13:39 27.8 °F 15.4 °F 1016.1 in NW 2.6 mph 6.4 mph 47 % 0.0 in
13:44 27.8 °F 15.4 °F 1016.1 in WNW 2.1 mph 6.4 mph 47 % 0.0 in
13:49 27.9 °F 15.6 °F 1016.1 in NE 2.1 mph 10.1 mph 47 % 0.0 in
13:54 28.1 °F 16.4 °F 1016.1 in ENE 4.0 mph 10.1 mph 49 % 0.0 in
13:59 28.2 °F 16.2 °F 1016.1 in ENE 4.5 mph 9.3 mph 48 % 0.0 in
14:04 28.1 °F 16.1 °F 1016.1 in NNE 3.4 mph 9.3 mph 48 % 0.0 in
14:09 28.0 °F 15.6 °F 1016.1 in North 3.9 mph 7.9 mph 47 % 0.0 in
14:14 27.7 °F 15.7 °F 1016.1 in NNW 4.5 mph 7.9 mph 48 % 0.0 in
14:19 27.5 °F 15.5 °F 1016.1 in NNW 4.8 mph 7.9 mph 48 % 0.0 in
14:24 27.6 °F 14.9 °F 1016.1 in NW 4.8 mph 7.6 mph 46 % 0.0 in
14:29 27.8 °F 15.1 °F 1015.1 in NW 5.0 mph 7.6 mph 46 % 0.0 in
14:34 27.9 °F 15.2 °F 1015.1 in North 4.3 mph 5.0 mph 46 % 0.0 in
14:36 28.0 °F 14.9 °F 1015.1 in North 4.0 mph 5.0 mph 45 % 0.0 in
14:41 28.0 °F 14.9 °F 1015.1 in NNE 3.5 mph 5.0 mph 45 % 0.0 in
14:46 28.3 °F 15.6 °F 1015.1 in West 3.9 mph 6.1 mph 46 % 0.0 in
14:51 28.6 °F 15.8 °F 1015.1 in West 3.2 mph 7.9 mph 46 % 0.0 in
14:56 28.8 °F 15.7 °F 1015.1 in ENE 3.4 mph 9.0 mph 45 % 0.0 in
15:01 28.7 °F 14.9 °F 1015.1 in East 4.3 mph 9.3 mph 43 % 0.0 in
15:06 28.7 °F 15.2 °F 1015.1 in ESE 3.2 mph 9.3 mph 44 % 0.0 in
15:11 28.3 °F 14.9 °F 1015.1 in SE 2.3 mph 5.8 mph 44 % 0.0 in
15:16 28.3 °F 14.9 °F 1014.1 in SE 4.0 mph 6.1 mph 44 % 0.0 in
15:21 28.7 °F 14.9 °F 1014.1 in SSE 3.5 mph 7.9 mph 43 % 0.0 in
15:26 29.0 °F 15.2 °F 1014.1 in South 2.7 mph 7.9 mph 43 % 0.0 in
15:31 29.1 °F 15.2 °F 1014.1 in SSE 1.9 mph 7.6 mph 43 % 0.0 in
15:36 28.9 °F 15.1 °F 1014.1 in WNW 2.6 mph 7.6 mph 43 % 0.0 in
15:41 29.1 °F 15.2 °F 1014.1 in WSW 2.9 mph 7.6 mph 43 % 0.0 in
15:46 29.3 °F 15.4 °F 1014.1 in SSE 2.6 mph 6.9 mph 43 % 0.0 in
15:51 29.6 °F 15.3 °F 1014.1 in SE 2.1 mph 6.9 mph 42 % 0.0 in
15:56 29.6 °F 15.7 °F 1014.1 in ENE 0.6 mph 3.2 mph 43 % 0.0 in
16:01 29.5 °F 15.2 °F 1014.1 in WNW 1.8 mph 6.1 mph 42 % 0.0 in
16:06 28.9 °F 14.7 °F 1014.1 in WSW 3.4 mph 7.6 mph 42 % 0.0 in
16:11 28.2 °F 14.4 °F 1014.1 in SW 2.3 mph 7.6 mph 43 % 0.0 in
16:16 28.4 °F 14.9 °F 1014.1 in SW 2.6 mph 6.9 mph 44 % 0.0 in
16:21 28.8 °F 15.0 °F 1014.1 in SW 3.9 mph 5.8 mph 43 % 0.0 in
16:26 28.5 °F 14.3 °F 1013.1 in WSW 3.1 mph 5.8 mph 42 % 0.0 in
16:31 28.2 °F 14.8 °F 1013.1 in West 3.2 mph 6.1 mph 44 % 0.0 in
16:36 28.5 °F 14.7 °F 1013.1 in West 4.3 mph 6.1 mph 43 % 0.0 in
16:41 28.8 °F 15.3 °F 1014.1 in West 4.3 mph 6.1 mph 44 % 0.0 in
16:46 29.1 °F 15.2 °F 1014.1 in West 3.1 mph 6.1 mph 43 % 0.0 in
16:51 29.3 °F 15.4 °F 1014.1 in SW 2.7 mph 6.1 mph 43 % 0.0 in
16:56 29.3 °F 15.1 °F 1014.1 in SSW 2.4 mph 6.1 mph 42 % 0.0 in
17:01 29.3 °F 14.7 °F 1014.1 in ESE 1.8 mph 10.5 mph 41 % 0.0 in
17:06 29.4 °F 14.8 °F 1014.1 in ESE 2.7 mph 10.5 mph 41 % 0.0 in
17:11 29.5 °F 15.2 °F 1014.1 in SE 2.1 mph 6.4 mph 42 % 0.0 in
17:16 29.6 °F 15.3 °F 1014.1 in SE 1.6 mph 5.8 mph 42 % 0.0 in
17:21 29.7 °F 15.4 °F 1014.1 in SSE 2.6 mph 6.1 mph 42 % 0.0 in
17:27 29.5 °F 15.2 °F 1014.1 in SW 4.0 mph 9.7 mph 42 % 0.0 in
17:32 29.1 °F 14.5 °F 1014.1 in WSW 4.5 mph 9.7 mph 41 % 0.0 in
17:37 28.9 °F 14.7 °F 1014.1 in WSW 5.0 mph 9.0 mph 42 % 0.0 in
17:42 28.9 °F 15.1 °F 1014.1 in SW 3.9 mph 9.0 mph 43 % 0.0 in
17:47 29.0 °F 14.8 °F 1014.1 in SSW 2.6 mph 5.0 mph 42 % 0.0 in
17:52 28.9 °F 14.7 °F 1014.1 in SW 3.4 mph 5.8 mph 42 % 0.0 in
17:57 28.8 °F 15.0 °F 1014.1 in SW 3.2 mph 5.8 mph 43 % 0.0 in
18:02 28.7 °F 14.5 °F 1014.1 in SW 2.1 mph 5.5 mph 42 % 0.0 in
18:07 28.5 °F 15.1 °F 1014.1 in WSW 2.1 mph 5.0 mph 44 % 0.0 in
18:12 28.2 °F 14.4 °F 1014.1 in WSW 2.4 mph 5.0 mph 43 % 0.0 in
18:17 28.0 °F 14.6 °F 1014.1 in WSW 2.4 mph 5.0 mph 44 % 0.0 in
18:22 27.7 °F 14.3 °F 1014.1 in West 3.2 mph 6.1 mph 44 % 0.0 in
18:27 27.5 °F 14.2 °F 1014.1 in West 2.9 mph 6.1 mph 44 % 0.0 in
18:32 27.0 °F 14.7 °F 1014.1 in WSW 2.1 mph 4.3 mph 47 % 0.0 in
18:37 26.6 °F 15.9 °F 1014.1 in West 1.4 mph 4.0 mph 52 % 0.0 in
18:42 26.4 °F 16.9 °F 1014.1 in WNW 0.5 mph 2.6 mph 56 % 0.0 in
18:47 26.2 °F 16.2 °F 1014.1 in NNW 0.3 mph 2.1 mph 54 % 0.0 in
18:52 26.0 °F 16.6 °F 1014.1 in NW 0.6 mph 1.8 mph 56 % 0.0 in
18:57 25.7 °F 17.1 °F 1014.1 in Calm   1.8 mph 59 % 0.0 in
19:02 25.5 °F 17.4 °F 1014.1 in Calm   1.8 mph 61 % 0.0 in
19:07 25.2 °F 16.9 °F 1014.1 in Calm   1.8 mph 60 % 0.0 in
19:12 24.9 °F 16.6 °F 1014.1 in Calm   1.4 mph 60 % 0.0 in
19:17 24.7 °F 16.4 °F 1014.1 in NW 0.6 mph 3.2 mph 60 % 0.0 in
19:22 24.4 °F 16.4 °F 1014.1 in NW 1.1 mph 4.7 mph 61 % 0.0 in
19:27 24.1 °F 16.6 °F 1014.1 in West 0.8 mph 4.7 mph 63 % 0.0 in
19:32 23.9 °F 16.4 °F 1014.1 in Calm     63 % 0.0 in
19:37 23.6 °F 16.6 °F 1014.1 in Calm   2.1 mph 65 % 0.0 in
19:42 23.3 °F 16.6 °F 1014.1 in South 0.6 mph 6.4 mph 66 % 0.0 in
19:47 23.2 °F 16.5 °F 1014.1 in SSE 1.9 mph 6.4 mph 66 % 0.0 in
19:52 23.1 °F 16.4 °F 1014.1 in SE 4.8 mph 6.4 mph 66 % 0.0 in
19:57 23.0 °F 16.1 °F 1014.1 in SE 5.8 mph 6.4 mph 65 % 0.0 in
20:02 22.8 °F 16.3 °F 1014.1 in SE 5.8 mph 6.4 mph 67 % 0.0 in
20:07 22.5 °F 16.1 °F 1014.1 in SE 0.5 mph 6.4 mph 67 % 0.0 in
20:12 22.2 °F 16.0 °F 1014.1 in Calm     68 % 0.0 in
20:17 22.0 °F 16.1 °F 1014.1 in Calm     69 % 0.0 in
20:22 21.8 °F 16.1 °F 1014.1 in Calm     70 % 0.0 in
20:27 21.5 °F 16.0 °F 1014.1 in Calm     71 % 0.0 in
20:32 21.4 °F 15.9 °F 1014.1 in Calm     71 % 0.0 in
20:37 21.1 °F 15.8 °F 1014.1 in Calm     72 % 0.0 in
20:42 21.0 °F 15.8 °F 1014.1 in Calm     72 % 0.0 in
20:47 20.8 °F 16.0 °F 1014.1 in Calm     74 % 0.0 in
20:52 20.6 °F 16.0 °F 1014.1 in Calm     75 % 0.0 in
20:57 20.4 °F 15.6 °F 1014.1 in Calm     74 % 0.0 in
21:02 20.1 °F 15.7 °F 1014.1 in Calm     76 % 0.0 in
21:07 20.0 °F 15.7 °F 1014.1 in Calm     76 % 0.0 in
21:12 19.8 °F 15.7 °F 1014.1 in Calm     77 % 0.0 in
21:17 19.5 °F 15.3 °F 1014.1 in Calm     77 % 0.0 in
21:22 19.4 °F 15.3 °F 1014.1 in Calm     77 % 0.0 in
21:27 19.2 °F 15.3 °F 1014.1 in Calm     78 % 0.0 in
21:29 19.2 °F 15.1 °F 1014.1 in Calm     77 % 0.0 in
21:34 19.0 °F 15.1 °F 1014.1 in Calm     78 % 0.0 in
21:39 18.8 °F 15.1 °F 1014.1 in Calm     79 % 0.0 in
21:44 18.6 °F 14.9 °F 1014.1 in Calm     79 % 0.0 in
21:50 18.5 °F 14.8 °F 1014.1 in Calm     79 % 0.0 in
21:55 18.4 °F 14.9 °F 1014.1 in Calm     80 % 0.0 in
22:00 18.4 °F 14.9 °F 1014.1 in Calm     80 % 0.0 in
22:05 18.2 °F 14.7 °F 1014.1 in Calm     80 % 0.0 in
22:10 18.1 °F 14.8 °F 1014.1 in Calm     81 % 0.0 in
22:15 18.0 °F 14.7 °F 1013.1 in Calm     81 % 0.0 in
22:20 17.9 °F 14.8 °F 1013.1 in Calm     82 % 0.0 in
22:25 17.7 °F 14.6 °F 1013.1 in Calm     82 % 0.0 in
22:30 17.6 °F 14.5 °F 1014.1 in Calm     82 % 0.0 in
22:35 17.5 °F 14.6 °F 1014.1 in Calm     83 % 0.0 in
22:40 17.4 °F 14.5 °F 1014.1 in Calm     83 % 0.0 in
22:45 17.3 °F 14.4 °F 1014.1 in Calm     83 % 0.0 in
22:50 17.3 °F 14.4 °F 1014.1 in Calm     83 % 0.0 in
22:55 17.2 °F 14.3 °F 1014.1 in Calm     83 % 0.0 in
23:00 17.1 °F 14.2 °F 1013.1 in Calm     83 % 0.0 in
23:05 17.0 °F 14.3 °F 1013.1 in Calm     84 % 0.0 in
23:10 17.0 °F 14.3 °F 1013.1 in Calm     84 % 0.0 in
23:11 16.9 °F 14.3 °F 1014.1 in Calm     85 % 0.0 in
23:16 16.8 °F 14.3 °F 1014.1 in Calm     85 % 0.0 in
23:21 16.7 °F 14.2 °F 1014.1 in Calm     85 % 0.0 in
23:26 16.6 °F 14.1 °F 1013.1 in Calm     85 % 0.0 in
23:31 16.6 °F 14.1 °F 1013.1 in Calm     85 % 0.0 in
23:36 16.5 °F 14.2 °F 1013.1 in Calm     86 % 0.0 in
23:41 16.5 °F 14.2 °F 1013.1 in Calm     86 % 0.0 in
23:46 16.4 °F 14.1 °F 1013.1 in Calm     86 % 0.0 in
23:51 16.3 °F 13.9 °F 1013.1 in Calm     86 % 0.0 in
23:56 16.3 °F 14.1 °F 1014.1 in Calm     87 % 0.0 in
Vremenska postaja Senovo
Podatki zbrani iz Weather Underground - 3 mb

Script developed by  Jim McMurry - jmcmurry@mwt.net Adapted for the template by  Wim van der Kuil - Leuven-Template.eu

Vremenski podatki so objavljeni na:

European Weather Network

WeatherCloud

Weather Underground

AWEKAS

HAMweather, WeatherForYou, PWS Weather

MapView

Geostik

Slovenia weather network

Oprema, ki se uporablja:

Vremenski program
Cumulus

Vremenski server
Asus

Cumulus

Asus